Hosston, Louisiana
Current Conditions -  °F | °C
As of 6:45 AM on Sunday 21 Dec 2014 (Local Time) from KDTN Reporting Station
Haze Haze  
Wind Chill: 30°   Ceiling: Unl
Heat Index: 34°   Visibility: 1.7mi
Dew Point: 33°   Wind: 5mph
Humidity: 96%   Direction: 90°E
Pressure: 30.15"   Gusts: NA
Location:  32.89°N, 93.88°W
Report Text: KDTN 211245Z AUTO 09004KT 1 3/4SM BR CLR 01/01 A3015 RMK AO2 T00110006
Loading
Personal Weather Stations






























Interactive Weather Map New forecast layout! Learn more

10-Day Weather Forecast

Advertisements
Track Severe Weather on mobile